Time;durP1;ratioP1;P1;durP2;ratioP2;P2;SDS_P1;SDS_P2;PMS_P1;PMS_P2;Temp;Humidity;BMP_temperature;BMP_pressure;BME280_temperature;BME280_humidity;BME280_pressure;Samples;Min_cycle;Max_cycle;Signal;HPM_P1;HPM_P2
2021/09/01 00:08:51;;;;;;;3.05;1.00;;;16.30;99.90;;;;;;20528059;28;20058;-80
2021/09/01 00:19:04;;;;;;;5.80;1.45;;;16.20;99.90;;;;;;20493443;28;20130;-80
2021/09/01 00:29:05;;;;;;;5.20;1.02;;;16.10;99.90;;;;;;20531189;28;20049;-80
2021/09/01 00:39:06;;;;;;;3.80;1.13;;;16.10;99.90;;;;;;20526894;28;20045;-80
2021/09/01 00:49:07;;;;;;;8.25;2.08;;;16.10;99.90;;;;;;20473970;28;20052;-79
2021/09/01 00:59:09;;;;;;;3.53;1.00;;;16.10;99.90;;;;;;20444234;28;20045;-80
2021/09/01 01:09:11;;;;;;;4.28;1.55;;;16.00;99.90;;;;;;20533818;28;20042;-80
2021/09/01 01:19:12;;;;;;;3.10;1.30;;;16.00;99.90;;;;;;20525851;28;20070;-80
2021/09/01 01:29:14;;;;;;;4.78;2.22;;;16.00;99.90;;;;;;20461116;28;20044;-80
2021/09/01 01:39:15;;;;;;;5.43;1.02;;;16.00;99.90;;;;;;20536068;28;20038;-80
2021/09/01 01:49:18;;;;;;;3.25;1.00;;;16.00;99.90;;;;;;20486649;28;20062;-80
2021/09/01 01:59:19;;;;;;;3.25;0.82;;;16.00;99.90;;;;;;20521564;28;20044;-80
2021/09/01 02:09:20;;;;;;;3.30;0.68;;;16.00;99.90;;;;;;20539037;28;20049;-80
2021/09/01 02:19:21;;;;;;;3.95;1.23;;;16.00;99.90;;;;;;20532421;28;20043;-80
2021/09/01 02:29:22;;;;;;;3.15;0.75;;;16.00;99.90;;;;;;20552160;28;20075;-79
2021/09/01 02:39:24;;;;;;;3.05;1.02;;;16.00;99.90;;;;;;20535027;28;20039;-80
2021/09/01 02:49:25;;;;;;;3.67;0.98;;;15.90;99.90;;;;;;20539885;28;20050;-80
2021/09/01 02:59:26;;;;;;;3.80;1.52;;;15.90;99.90;;;;;;20554433;28;20046;-80
2021/09/01 03:09:27;;;;;;;3.85;1.13;;;15.80;99.90;;;;;;20603005;28;20134;-80
2021/09/01 03:19:28;;;;;;;11.70;1.55;;;15.80;99.90;;;;;;20523556;28;20074;-80
2021/09/01 03:29:29;;;;;;;4.63;0.90;;;15.80;99.90;;;;;;20551819;28;20050;-80
2021/09/01 03:39:30;;;;;;;4.18;1.65;;;15.80;99.90;;;;;;20580218;28;20054;-80
2021/09/01 03:49:32;;;;;;;8.55;1.33;;;15.90;99.90;;;;;;20545527;28;20373;-79
2021/09/01 03:59:33;;;;;;;4.43;0.80;;;15.80;99.90;;;;;;20553621;28;20039;-79
2021/09/01 04:09:34;;;;;;;3.85;0.90;;;15.90;99.90;;;;;;20537316;28;20136;-80
2021/09/01 04:19:36;;;;;;;3.28;0.88;;;15.80;99.90;;;;;;20542694;28;20042;-80
2021/09/01 04:29:37;;;;;;;2.90;1.15;;;15.70;99.90;;;;;;20591006;28;20053;-79
2021/09/01 04:39:38;;;;;;;4.35;0.73;;;15.70;99.90;;;;;;20532973;28;20053;-80
2021/09/01 04:49:39;;;;;;;5.72;1.33;;;15.70;99.90;;;;;;20544909;28;20042;-80
2021/09/01 04:59:40;;;;;;;2.58;1.00;;;15.90;99.90;;;;;;20535410;28;20042;-79
2021/09/01 05:09:41;;;;;;;4.20;1.38;;;15.80;99.90;;;;;;20550951;28;20054;-80
2021/09/01 05:19:42;;;;;;;2.88;1.02;;;15.70;99.90;;;;;;20590649;28;20053;-80
2021/09/01 05:29:46;;;;;;;4.28;0.57;;;15.60;99.90;;;;;;20552796;28;20055;-80
2021/09/01 05:39:49;;;;;;;6.25;1.83;;;15.50;99.90;;;;;;20586187;28;20038;-79
2021/09/01 05:49:52;;;;;;;2.75;0.93;;;15.60;99.90;;;;;;20599102;28;20065;-79
2021/09/01 06:00:04;;;;;;;2.25;0.75;;;15.60;99.90;;;;;;20607996;28;20669;-80
2021/09/01 06:10:09;;;;;;;3.60;1.10;;;15.60;99.90;;;;;;20577775;28;20491;-80
2021/09/01 06:20:10;;;;;;;3.17;0.88;;;15.70;99.90;;;;;;20512562;28;20065;-79
2021/09/01 06:30:13;;;;;;;5.55;0.80;;;15.80;99.90;;;;;;20546026;28;20713;-80
2021/09/01 06:40:15;;;;;;;2.00;0.73;;;15.90;99.90;;;;;;20538400;28;20035;-80
2021/09/01 06:50:20;;;;;;;1.70;0.65;;;15.90;99.90;;;;;;20571858;28;20057;-80
2021/09/01 07:00:21;;;;;;;2.70;1.02;;;16.00;99.90;;;;;;20555082;28;20073;-80
2021/09/01 07:10:22;;;;;;;1.98;1.02;;;16.00;99.90;;;;;;20501226;28;20620;-80
2021/09/01 07:20:23;;;;;;;2.95;0.50;;;16.10;99.90;;;;;;20496180;28;20046;-79
2021/09/01 07:30:25;;;;;;;1.60;0.47;;;16.10;99.90;;;;;;20526414;28;20047;-80
2021/09/01 07:40:26;;;;;;;1.95;0.60;;;16.20;99.90;;;;;;20525797;28;20460;-79
2021/09/01 07:50:29;;;;;;;1.83;0.75;;;16.20;99.90;;;;;;20516185;28;20727;-80
2021/09/01 08:00:31;;;;;;;1.70;0.30;;;16.30;99.90;;;;;;20511729;28;20046;-80
2021/09/01 08:10:32;;;;;;;1.58;0.35;;;16.40;99.90;;;;;;20548810;28;20064;-79
2021/09/01 08:20:33;;;;;;;1.75;0.60;;;16.50;99.90;;;;;;20543899;28;20050;-79
2021/09/01 08:30:34;;;;;;;2.35;0.38;;;16.70;99.90;;;;;;20528931;28;20146;-80
2021/09/01 08:40:36;;;;;;;1.73;0.52;;;16.80;99.90;;;;;;20498708;28;20487;-80
2021/09/01 08:50:37;;;;;;;2.55;0.50;;;16.90;99.90;;;;;;20562025;28;20049;-80
2021/09/01 09:00:38;;;;;;;2.08;0.73;;;17.10;99.90;;;;;;20526678;28;20043;-80
2021/09/01 09:10:44;;;;;;;4.93;1.13;;;17.30;99.90;;;;;;20528955;28;20062;-79
2021/09/01 09:20:45;;;;;;;3.15;0.68;;;17.30;99.90;;;;;;20537459;28;20036;-79
2021/09/01 09:30:47;;;;;;;1.17;0.40;;;17.30;99.90;;;;;;20526175;28;20056;-80
2021/09/01 09:40:48;;;;;;;2.08;0.50;;;17.30;99.90;;;;;;20520171;28;20454;-80
2021/09/01 09:50:49;;;;;;;4.82;0.77;;;17.30;99.90;;;;;;20471083;28;20039;-80
2021/09/01 10:00:50;;;;;;;1.70;0.73;;;17.30;99.90;;;;;;20451716;28;20030;-79
2021/09/01 10:10:53;;;;;;;2.50;0.50;;;17.50;99.90;;;;;;20453008;28;20051;-80
2021/09/01 10:20:56;;;;;;;1.52;0.50;;;17.40;99.90;;;;;;20451407;28;20046;-80
2021/09/01 10:31:10;;;;;;;2.30;0.88;;;17.40;99.90;;;;;;20491895;28;20065;-80
2021/09/01 10:41:11;;;;;;;1.65;0.40;;;17.60;99.90;;;;;;20514004;28;20699;-79
2021/09/01 10:51:46;;;;;;;0.98;0.30;;;17.80;99.90;;;;;;20563453;28;20043;-79
2021/09/01 11:02:14;;;;;;;1.52;0.50;;;18.00;99.90;;;;;;20520445;28;20039;-79
2021/09/01 11:12:15;;;;;;;0.97;0.40;;;18.30;99.90;;;;;;20543279;28;20061;-79
2021/09/01 11:22:19;;;;;;;0.98;0.40;;;18.60;99.90;;;;;;20544617;28;20042;-79
2021/09/01 11:32:20;;;;;;;1.23;0.47;;;18.90;99.90;;;;;;20538933;28;20403;-79
2021/09/01 11:42:21;;;;;;;0.88;0.30;;;18.50;99.90;;;;;;20533042;28;20042;-79
2021/09/01 11:52:29;;;;;;;2.95;0.70;;;18.30;99.90;;;;;;20578693;28;20076;-79
2021/09/01 12:02:33;;;;;;;2.03;0.50;;;18.30;99.90;;;;;;20560204;28;20396;-79
2021/09/01 12:12:36;;;;;;;1.20;0.22;;;18.40;99.90;;;;;;20550441;28;20050;-79
2021/09/01 12:22:41;;;;;;;1.15;0.50;;;18.60;99.90;;;;;;20559541;28;20132;-79
2021/09/01 12:32:42;;;;;;;0.82;0.30;;;18.70;99.90;;;;;;20545733;28;20044;-79
2021/09/01 12:42:44;;;;;;;2.65;0.63;;;18.70;99.90;;;;;;20532348;28;20043;-79
2021/09/01 12:52:45;;;;;;;1.70;0.40;;;19.00;99.90;;;;;;20548163;28;20079;-79
2021/09/01 13:02:48;;;;;;;0.70;0.20;;;19.40;99.90;;;;;;20533891;28;20498;-79
2021/09/01 13:12:56;;;;;;;1.65;0.40;;;19.20;99.90;;;;;;20585039;28;20043;-79
2021/09/01 13:22:57;;;;;;;1.30;0.50;;;19.00;99.90;;;;;;20551801;28;20036;-79
2021/09/01 13:32:58;;;;;;;2.85;1.10;;;18.80;99.90;;;;;;20519534;28;20048;-79
2021/09/01 13:42:59;;;;;;;4.97;0.60;;;18.80;99.90;;;;;;20494167;28;20034;-79
2021/09/01 13:53:01;;;;;;;1.00;0.30;;;18.80;99.90;;;;;;20506705;28;20056;-79
2021/09/01 14:03:07;;;;;;;2.28;0.77;;;18.90;99.90;;;;;;20495396;28;20034;-79
2021/09/01 14:13:08;;;;;;;1.60;0.63;;;18.90;99.90;;;;;;20504520;28;20055;-79
2021/09/01 14:23:09;;;;;;;1.60;0.60;;;18.70;99.90;;;;;;20483106;28;20089;-79
2021/09/01 14:33:10;;;;;;;4.28;0.60;;;18.70;99.90;;;;;;20440968;28;20364;-79
2021/09/01 14:43:12;;;;;;;1.20;0.45;;;18.70;99.90;;;;;;20515399;28;20310;-79
2021/09/01 14:53:13;;;;;;;3.72;0.88;;;18.90;99.90;;;;;;20562246;28;20035;-79
2021/09/01 15:03:15;;;;;;;1.67;0.45;;;19.00;99.90;;;;;;20578024;28;20397;-79
2021/09/01 15:13:16;;;;;;;4.57;0.85;;;19.00;99.90;;;;;;20527689;28;20061;-79
2021/09/01 15:23:17;;;;;;;2.03;0.70;;;18.90;99.90;;;;;;20562678;28;20045;-79
2021/09/01 15:33:18;;;;;;;1.95;0.65;;;18.80;99.90;;;;;;20593791;28;20043;-79
2021/09/01 15:43:27;;;;;;;1.50;0.70;;;18.60;99.90;;;;;;20543685;28;20043;-79
2021/09/01 15:53:29;;;;;;;3.78;0.68;;;18.70;99.90;;;;;;20512681;28;20066;-79
2021/09/01 16:03:38;;;;;;;2.28;0.93;;;18.60;99.90;;;;;;20505374;28;20021;-79
2021/09/01 16:13:47;;;;;;;1.58;0.70;;;18.50;99.90;;;;;;20554887;28;20891;-79
2021/09/01 16:23:48;;;;;;;2.72;0.98;;;18.40;99.90;;;;;;20536764;28;20035;-79
2021/09/01 16:33:50;;;;;;;2.55;0.93;;;18.30;99.90;;;;;;20521997;28;20162;-79
2021/09/01 16:43:52;;;;;;;1.98;1.00;;;18.30;99.90;;;;;;20554914;28;20464;-79
2021/09/01 16:53:59;;;;;;;4.55;1.30;;;18.20;99.90;;;;;;20476435;28;20056;-79
2021/09/01 17:04:03;;;;;;;7.70;2.20;;;18.20;99.90;;;;;;20524740;28;20390;-79
2021/09/01 17:14:04;;;;;;;2.97;1.20;;;18.10;99.90;;;;;;20525603;28;20540;-79
2021/09/01 17:24:05;;;;;;;3.65;1.48;;;18.10;99.90;;;;;;20470120;28;20449;-79
2021/09/01 17:34:10;;;;;;;4.65;1.40;;;18.00;99.90;;;;;;20489267;28;20550;-79
2021/09/01 17:44:15;;;;;;;4.70;1.92;;;17.90;99.90;;;;;;20571705;28;20045;-80
2021/09/01 17:54:19;;;;;;;4.50;1.35;;;17.80;99.90;;;;;;20545585;28;20387;-80
2021/09/01 18:04:20;;;;;;;4.50;1.55;;;17.80;99.90;;;;;;20559942;28;20030;-80
2021/09/01 18:14:21;;;;;;;3.92;1.58;;;17.70;99.90;;;;;;20512233;28;20055;-80
2021/09/01 18:24:22;;;;;;;4.32;1.33;;;17.50;99.90;;;;;;20533503;28;20049;-79
2021/09/01 18:34:26;;;;;;;5.18;2.22;;;17.50;99.90;;;;;;20541734;28;20513;-79
2021/09/01 18:44:27;;;;;;;4.07;1.38;;;17.50;99.90;;;;;;20583278;28;20061;-80
2021/09/01 18:54:29;;;;;;;2.95;1.48;;;17.50;99.90;;;;;;20563073;28;20046;-80
2021/09/01 19:04:36;;;;;;;4.07;1.83;;;17.50;99.90;;;;;;20569370;28;20063;-79
2021/09/01 19:14:38;;;;;;;;;;;17.50;99.90;;;;;;20589059;28;20506;-80
2021/09/01 19:24:39;;;;;;;3.35;1.42;;;17.40;99.90;;;;;;20548705;28;19921;-80
2021/09/01 19:34:44;;;;;;;5.78;1.67;;;17.40;99.90;;;;;;20539038;28;20048;-80
2021/09/01 19:44:46;;;;;;;4.55;1.95;;;17.40;99.90;;;;;;20596226;28;20052;-80
2021/09/01 19:54:48;;;;;;;4.40;2.00;;;17.30;99.90;;;;;;20552176;28;20051;-80
2021/09/01 20:04:50;;;;;;;4.68;1.90;;;17.30;99.90;;;;;;20572787;28;20059;-80
2021/09/01 20:14:52;;;;;;;3.83;1.70;;;17.20;99.90;;;;;;20565161;28;20050;-80
2021/09/01 20:24:55;;;;;;;4.18;1.60;;;17.20;99.90;;;;;;20541223;28;20033;-80
2021/09/01 20:35:00;;;;;;;5.65;2.40;;;17.10;99.90;;;;;;20588954;28;20550;-79
2021/09/01 20:45:03;;;;;;;4.07;1.98;;;17.10;99.90;;;;;;20587739;28;20053;-80
2021/09/01 20:55:05;;;;;;;5.53;1.95;;;17.10;99.90;;;;;;20563190;28;20722;-79
2021/09/01 21:05:08;;;;;;;5.55;2.20;;;17.00;99.90;;;;;;20572370;28;20037;-80
2021/09/01 21:15:17;;;;;;;5.70;1.73;;;17.00;99.90;;;;;;20564789;28;20048;-80
2021/09/01 21:25:18;;;;;;;3.15;1.27;;;17.00;99.90;;;;;;20552344;28;20046;-80
2021/09/01 21:35:19;;;;;;;3.25;1.23;;;17.00;99.90;;;;;;20559771;28;20045;-79
2021/09/01 21:45:21;;;;;;;2.40;1.10;;;17.00;99.90;;;;;;20564184;28;20042;-80
2021/09/01 21:55:23;;;;;;;4.43;1.50;;;16.90;99.90;;;;;;20571789;28;20050;-80
2021/09/01 22:05:24;;;;;;;3.92;1.30;;;16.90;99.90;;;;;;20578065;28;20320;-80
2021/09/01 22:15:25;;;;;;;3.28;1.45;;;16.90;99.90;;;;;;20568757;28;20109;-80
2021/09/01 22:25:26;;;;;;;5.90;1.90;;;16.90;99.90;;;;;;20550728;28;20034;-80
2021/09/01 22:35:27;;;;;;;3.75;1.60;;;16.80;99.90;;;;;;20603624;28;20060;-80
2021/09/01 22:45:28;;;;;;;2.72;1.08;;;16.80;99.90;;;;;;20623811;28;20670;-80
2021/09/01 22:55:29;;;;;;;3.10;1.20;;;16.80;99.90;;;;;;20572256;28;20518;-80
2021/09/01 23:05:30;;;;;;;4.03;1.20;;;16.70;99.90;;;;;;20574837;28;20035;-80
2021/09/01 23:15:33;;;;;;;3.50;1.27;;;16.70;99.90;;;;;;20571172;28;20048;-80
2021/09/01 23:25:34;;;;;;;4.45;1.40;;;16.60;99.90;;;;;;20534949;28;20043;-80
2021/09/01 23:35:36;;;;;;;3.67;1.02;;;16.50;99.90;;;;;;20558638;28;20054;-80
2021/09/01 23:45:38;;;;;;;3.45;1.38;;;16.40;99.90;;;;;;20536383;28;20038;-80
2021/09/01 23:55:39;;;;;;;2.45;0.90;;;16.30;99.90;;;;;;20591670;28;20661;-79
